Time;durP1;ratioP1;P1;durP2;ratioP2;P2;SDS_P1;SDS_P2;PMS_P1;PMS_P2;Temp;Humidity;BMP_temperature;BMP_pressure;BME280_temperature;BME280_humidity;BME280_pressure;Samples;Min_cycle;Max_cycle;Signal;HPM_P1;HPM_P2
2021/05/20 00:00:11;;;;;;;;;;;8.20;99.90;;;6.93;88.99;96032.47;10529932;28;1760;-87
2021/05/20 00:05:18;;;;;;;;;;;8.10;99.90;;;6.93;87.58;96037.81;10546910;28;2145;-89
2021/05/20 00:10:37;;;;;;;;;;;9.20;99.90;;;6.90;87.81;96045.53;10528644;28;2128;-88
2021/05/20 00:15:44;;;;;;;;;;;8.70;99.90;;;6.89;88.56;96044.72;10546286;28;1936;-88
2021/05/20 00:20:48;;;;;;;;;;;8.00;99.90;;;6.88;88.91;96037.75;10522082;28;2066;-89
2021/05/20 00:26:03;;;;;;;;;;;8.60;99.90;;;6.89;88.52;96043.91;10551605;28;2227;-87
2021/05/20 00:31:16;;;;;;;;;;;8.30;99.90;;;6.87;89.41;96036.13;10530672;28;1739;-87
2021/05/20 00:36:21;;;;;;;;;;;8.00;99.90;;;6.89;89.29;96044.72;10529836;28;2136;-88
2021/05/20 00:41:27;;;;;;;;;;;9.30;99.90;;;6.91;89.74;96047.94;10541050;28;1918;-88
2021/05/20 00:46:40;;;;;;;;;;;8.30;99.90;;;6.93;89.42;96043.16;10539763;28;1762;-86
2021/05/20 00:51:56;;;;;;;;;;;8.00;99.90;;;6.94;89.25;96047.47;10530439;28;2404;-86
2021/05/20 00:57:07;;;;;;;;;;;9.10;99.90;;;6.91;88.64;96044.47;10533459;28;1815;-85
2021/05/20 01:02:12;;;;;;;;;;;8.90;99.90;;;6.92;89.71;96046.88;10543491;28;2144;-88
2021/05/20 01:07:28;;;;;;;;;;;9.30;99.90;;;6.98;89.40;96047.78;10533632;28;2302;-86
2021/05/20 01:12:35;;;;;;;;;;;8.10;99.90;;;6.94;90.35;96044.81;10520756;28;2154;-85
2021/05/20 01:18:08;;;;;;;;;;;8.10;99.90;;;6.96;91.00;96044.53;10541003;28;2413;-86
2021/05/20 01:23:20;;;;;;;;;;;9.20;99.90;;;6.80;93.72;96051.50;10555060;28;1910;-86
2021/05/20 01:28:28;;;;;;;;;;;8.00;99.90;;;6.73;95.84;96051.66;10549657;28;2104;-87
2021/05/20 01:33:33;;;;;;;;;;;9.40;99.90;;;6.65;96.63;96054.75;10573211;28;1835;-88
2021/05/20 01:38:44;;;;;;;;;;;9.00;99.90;;;6.64;97.84;96063.00;10554878;28;2220;-87
2021/05/20 01:43:49;;;;;;;;;;;8.20;99.90;;;6.64;97.74;96060.34;10544551;28;2115;-87
2021/05/20 01:48:55;;;;;;;;;;;9.10;99.90;;;6.63;98.13;96066.72;10538853;28;2193;-86
2021/05/20 01:54:00;;;;;;;;;;;7.70;99.90;;;6.58;97.51;96067.44;10530314;28;1953;-86
2021/05/20 01:59:04;;;;;;;;;;;8.20;99.90;;;6.58;98.29;96064.78;10548031;28;1805;-87
2021/05/20 02:04:13;;;;;;;;;;;7.90;99.90;;;6.61;98.61;96063.47;10549144;28;2231;-87
2021/05/20 02:09:22;;;;;;;;;;;8.20;99.90;;;6.52;98.00;96070.25;10558365;28;2208;-87
2021/05/20 02:14:26;;;;;;;;;;;8.10;99.90;;;6.41;96.80;96063.94;10546921;28;2450;-89
2021/05/20 02:19:37;;;;;;;;;;;8.00;99.90;;;6.36;96.88;96070.00;10534086;28;2165;-87
2021/05/20 02:24:46;;;;;;;;;;;8.20;99.90;;;6.29;96.71;96066.66;10535156;28;1977;-86
2021/05/20 02:29:57;;;;;;;;;;;7.60;99.90;;;6.36;97.75;96063.81;10538101;28;1580;-87
2021/05/20 02:35:01;;;;;;;;;;;7.40;99.90;;;6.39;97.25;96060.69;10523419;28;1981;-87
2021/05/20 02:40:09;;;;;;;;;;;7.50;99.90;;;6.38;96.04;96064.41;10544987;28;1338;-85
2021/05/20 02:50:39;;;;;;;;;;;7.90;99.90;;;6.28;97.10;96065.03;10522656;28;2134;-87
2021/05/20 02:55:48;;;;;;;;;;;7.80;99.90;;;6.16;97.17;96065.06;10521987;28;2047;-86
2021/05/20 03:00:53;;;;;;;;;;;7.80;99.90;;;6.01;97.13;96069.31;10526589;28;2221;-85
2021/05/20 03:06:13;;;;;;;;;;;7.30;99.90;;;5.89;97.84;96064.81;10557574;28;1425;-88
2021/05/20 03:11:17;;;;;;;;;;;7.20;99.90;;;5.86;98.37;96075.97;10496901;22;3600;-87
2021/05/20 03:16:25;;;;;;;;;;;7.00;99.90;;;5.85;98.23;96071.66;10479173;28;2207;-87
2021/05/20 03:21:40;;;;;;;;;;;7.90;99.90;;;5.78;98.45;96081.63;10459804;28;1979;-88
2021/05/20 03:26:51;;;;;;;;;;;7.80;99.90;;;5.81;98.04;96073.19;10457760;28;1272;-87
2021/05/20 03:32:00;;;;;;;;;;;7.00;99.90;;;5.73;97.90;96068.22;10460743;28;1837;-86
2021/05/20 03:37:11;;;;;;;;;;;7.00;99.90;;;5.66;98.27;96067.50;10466437;28;2020;-87
2021/05/20 03:42:20;;;;;;;;;;;6.90;99.90;;;5.71;97.90;96070.28;10461213;28;1899;-88
2021/05/20 03:47:30;;;;;;;;;;;7.90;99.90;;;5.76;98.50;96073.06;10478854;28;2194;-86
2021/05/20 03:52:42;;;;;;;;;;;7.00;99.90;;;5.90;98.44;96069.09;10447547;28;2418;-88
2021/05/20 03:57:56;;;;;;;;;;;7.00;99.90;;;6.18;96.93;96075.53;10469864;28;1447;-87
2021/05/20 04:03:10;;;;;;;;;;;7.20;99.90;;;6.54;95.06;96087.66;10459774;28;1975;-88
2021/05/20 04:08:20;;;;;;;;;;;7.40;99.90;;;7.04;92.14;96077.00;10464642;28;2153;-88
2021/05/20 04:13:53;;;;;;;;;;;9.00;99.90;;;7.52;88.66;96085.47;10460193;28;2219;-85
2021/05/20 04:24:55;;;;;;;;;;;8.40;99.90;;;7.96;86.48;96086.34;10458033;28;2244;-88
2021/05/20 04:30:35;;;;;;;;;;;8.70;99.90;;;7.82;87.12;96098.44;10472004;28;2237;-88
2021/05/20 04:35:55;;;;;;;;;;;8.80;99.90;;;8.06;87.40;96099.81;10448842;28;2459;-87
2021/05/20 04:41:32;;;;;;;;;;;8.90;99.90;;;7.61;90.09;96104.59;10364645;28;2350;-88
2021/05/20 04:46:47;;;;;;;;;;;8.70;99.90;;;7.58;91.13;96111.25;10379015;28;2591;-87
2021/05/20 04:51:58;;;;;;;;;;;9.60;99.90;;;7.42;91.81;96112.88;10380663;28;2274;-88
2021/05/20 04:57:14;;;;;;;;;;;9.00;99.90;;;7.35;90.44;96122.94;10356642;28;2254;-86
2021/05/20 05:02:18;;;;;;;;;;;9.50;99.90;;;7.32;91.84;96124.25;10359314;28;2364;-86
2021/05/20 05:07:33;;;;;;;;;;;8.50;99.90;;;7.55;90.83;96138.47;10372328;28;2267;-85
2021/05/20 05:13:00;;;;;;;;;;;8.60;99.90;;;7.91;88.59;96142.47;10365114;28;2271;-88
2021/05/20 05:18:15;;;;;;;;;;;8.80;99.90;;;7.98;87.46;96143.09;10432939;28;2186;-85
2021/05/20 05:23:23;;;;;;;;;;;9.00;99.90;;;8.21;87.21;96143.94;10453690;28;2208;-89
2021/05/20 05:28:40;;;;;;;;;;;9.00;99.90;;;8.47;86.77;96140.53;10433793;28;2172;-86
2021/05/20 05:34:02;;;;;;;;;;;9.30;99.90;;;8.43;84.32;96146.63;10460945;28;2245;-85
2021/05/20 05:39:06;;;;;;;;;;;10.30;99.90;;;8.75;84.75;96146.69;10447331;28;2142;-86
2021/05/20 05:44:11;;;;;;;;;;;9.50;99.90;;;9.31;80.69;96158.75;10431061;28;2153;-84
2021/05/20 05:49:17;;;;;;;;;;;9.90;99.90;;;9.29;80.74;96163.56;10459179;28;2064;-88
2021/05/20 05:54:27;;;;;;;;;;;10.10;99.90;;;9.30;80.33;96164.38;10447180;28;2336;-89
2021/05/20 05:59:57;;;;;;;;;;;10.10;99.90;;;9.60;78.06;96175.34;10447069;28;2411;-87
2021/05/20 06:05:15;;;;;;;;;;;10.30;99.90;;;9.29;78.92;96186.88;10457429;28;2136;-89
2021/05/20 06:10:46;;;;;;;;;;;10.30;99.90;;;9.46;79.43;96190.25;10454263;28;2179;-86
2021/05/20 06:21:35;;;;;;;;;;;10.50;99.90;;;9.70;78.48;96196.91;10446819;28;2078;-89
2021/05/20 06:26:38;;;;;;;;;;;10.50;99.90;;;9.60;78.33;96202.19;10446182;28;2008;-89
2021/05/20 06:31:47;;;;;;;;;;;10.50;99.90;;;9.73;78.36;96196.41;10445895;28;1917;-87
2021/05/20 06:37:31;;;;;;;;;;;10.50;99.90;;;9.99;75.75;96193.88;10329242;28;2355;-88
2021/05/20 06:42:52;;;;;;;;;;;10.80;99.90;;;9.82;78.22;96201.28;10311409;28;2359;-88
2021/05/20 06:47:56;;;;;;;;;;;10.70;99.90;;;9.65;79.23;96204.91;10316325;28;2229;-87
2021/05/20 06:53:04;;;;;;;;;;;10.70;99.90;;;9.81;77.74;96211.22;10330819;28;2532;-85
2021/05/20 07:03:30;;;;;;;;;;;10.80;99.90;;;10.27;75.79;96212.31;10311723;28;2205;-88
2021/05/20 07:08:37;;;;;;;;;;;11.00;99.90;;;10.70;72.73;96223.81;10456065;28;2274;-89
2021/05/20 07:13:42;;;;;;;;;;;11.20;99.90;;;11.57;70.77;96218.63;10463344;28;1969;-88
2021/05/20 07:18:47;;;;;;;;;;;11.80;99.90;;;11.59;71.12;96216.47;10457664;28;2021;-87
2021/05/20 07:24:01;;;;;;;;;;;12.30;99.90;;;12.33;67.75;96210.47;10452428;28;2278;-86
2021/05/20 07:29:08;;;;;;;;;;;12.50;99.90;;;11.79;68.21;96221.06;10453536;28;2157;-88
2021/05/20 07:34:15;;;;;;;;;;;12.60;99.90;;;10.99;69.23;96220.69;10449060;28;2279;-89
2021/05/20 07:39:22;;;;;;;;;;;12.30;99.90;;;10.94;68.75;96212.59;10459285;28;1925;-88
2021/05/20 07:44:26;;;;;;;;;;;11.80;99.90;;;11.69;67.48;96215.66;10453434;28;2064;-87
2021/05/20 07:55:27;;;;;;;;;;;12.80;99.90;;;13.06;59.19;96184.84;10441160;28;1608;-86
2021/05/20 08:00:55;;;;;;;;;;;13.60;99.90;;;12.70;59.34;96196.59;10441143;28;2108;-85
2021/05/20 08:06:28;;;;;;;;;;;13.50;99.90;;;10.21;77.50;96223.28;10458060;28;2106;-89
2021/05/20 08:12:24;;;;;;;;;;;12.30;99.90;;;9.39;87.31;96216.50;10329288;28;2080;-87
2021/05/20 08:17:39;;;;;;;;;;;10.90;99.90;;;9.12;89.55;96217.31;10317777;28;2135;-88
2021/05/20 08:22:52;;;;;;;;;;;10.30;99.90;;;10.10;84.46;96214.34;10339412;28;1989;-88
2021/05/20 08:28:09;;;;;;;;;;;10.70;99.90;;;10.99;80.66;96215.28;10330255;28;1806;-84
2021/05/20 09:13:39;;;;;;;;;;;13.20;99.90;;;13.31;64.32;96187.41;10468233;28;1591;-85
2021/05/20 09:18:44;;;;;;;;;;;13.90;99.90;;;13.52;62.68;96183.47;10447374;28;1746;-86
2021/05/20 09:23:48;;;;;;;;;;;14.00;99.90;;;14.74;56.38;96191.47;10467786;28;1968;-85
2021/05/20 09:28:52;;;;;;;;;;;14.80;99.90;;;14.57;55.08;96181.13;10496256;28;2073;-85
2021/05/20 09:33:55;;;;;;;;;;;15.20;99.90;;;14.79;55.19;96183.28;10492695;28;1507;-86
2021/05/20 09:38:57;;;;;;;;;;;15.30;99.90;;;14.63;54.62;96179.94;10471653;28;1997;-85
2021/05/20 09:44:03;;;;;;;;;;;15.40;99.90;;;14.06;55.76;96168.94;10460019;28;2140;-84
2021/05/20 09:49:05;;;;;;;;;;;15.10;99.90;;;14.13;53.71;96165.09;10435954;28;2038;-85
2021/05/20 09:54:09;;;;;;;;;;;15.00;99.90;;;14.41;54.76;96164.22;10450962;28;2283;-85
2021/05/20 09:59:13;;;;;;;;;;;15.10;99.90;;;15.18;55.63;96155.94;10435739;28;1932;-83
2021/05/20 10:04:20;;;;;;;;;;;15.60;99.90;;;15.25;54.39;96159.09;10458419;28;1906;-84
2021/05/20 10:09:33;;;;;;;;;;;15.90;99.90;;;15.90;51.09;96161.03;10452383;28;1691;-84
2021/05/20 10:14:42;;;;;;;;;;;16.30;99.90;;;15.85;49.52;96153.03;10446159;28;1748;-85
2021/05/20 10:19:52;;;;;;;;;;;16.50;99.90;;;14.36;56.02;96163.47;10455054;28;2146;-85
2021/05/20 10:24:55;;;;;;;;;;;15.90;99.90;;;14.20;56.01;96169.06;10455524;28;1982;-85
2021/05/20 10:29:58;;;;;;;;;;;15.30;99.90;;;14.29;56.20;96171.94;10451989;28;1705;-84
2021/05/20 10:35:01;;;;;;;;;;;15.40;99.90;;;15.50;51.84;96176.84;10470458;28;1863;-85
2021/05/20 10:40:03;;;;;;;;;;;15.90;99.90;;;15.10;52.19;96176.38;10458271;28;1796;-85
2021/05/20 10:45:09;;;;;;;;;;;16.10;99.90;;;16.16;48.36;96166.84;10458742;28;2009;-86
2021/05/20 10:50:14;;;;;;;;;;;;;;;16.41;45.79;96151.97;10469042;28;2042;-87
2021/05/20 10:55:17;;;;;;;;;;;;;;;16.67;45.58;96161.25;10478119;28;1809;-86
2021/05/20 11:00:20;;;;;;;;;;;;;;;17.06;44.59;96151.75;10464975;28;1818;-84
2021/05/20 11:05:23;;;;;;;;;;;;;;;16.85;45.22;96150.56;10455866;28;2114;-87
2021/05/20 11:10:26;;;;;;;;;;;19.80;93.50;;;18.27;41.34;96149.09;10474794;28;2159;-86
2021/05/20 11:15:28;;;;;;;;;;;21.60;91.00;;;17.59;42.22;96142.09;10479230;28;2179;-84
2021/05/20 11:20:33;;;;;;;;;;;20.10;89.60;;;16.27;41.63;96148.47;10472991;28;2377;-85
2021/05/20 11:25:36;;;;;;;;;;;18.50;85.70;;;14.91;49.24;96159.31;10463719;28;2100;-83
2021/05/20 11:30:39;;;;;;;;;;;16.70;92.90;;;14.03;50.00;96158.69;10449942;28;1967;-85
2021/05/20 11:35:54;;;;;;;;;;;15.60;94.50;;;14.18;49.94;96154.19;10460691;28;2137;-85
2021/05/20 11:40:56;;;;;;;;;;;15.30;96.00;;;14.76;47.50;96146.78;10460010;28;2077;-87
2021/05/20 11:45:59;;;;;;;;;;;15.50;96.30;;;14.43;49.94;96153.91;10464761;28;2140;-83
2021/05/20 11:51:02;;;;;;;;;;;14.80;97.20;;;13.94;53.35;96155.00;10460535;28;1978;-88
2021/05/20 11:56:05;;;;;;;;;;;15.20;99.90;;;13.61;52.32;96147.72;10455184;28;1829;-85
2021/05/20 12:01:10;;;;;;;;;;;14.80;99.90;;;13.86;51.48;96133.19;10442269;28;2203;-85
2021/05/20 12:06:17;;;;;;;;;;;14.80;99.90;;;14.60;50.28;96148.06;10440484;28;1914;-81
2021/05/20 12:11:20;;;;;;;;;;;16.40;99.90;;;15.23;48.39;96134.22;10449659;28;1999;-87
2021/05/20 12:16:24;;;;;;;;;;;15.90;99.40;;;15.06;47.09;96128.50;10468941;28;1891;-85
2021/05/20 12:21:28;;;;;;;;;;;16.00;94.20;;;16.00;46.68;96114.78;10466536;28;2082;-86
2021/05/20 12:26:31;;;;;;;;;;;16.40;96.70;;;16.68;46.71;96124.03;10488409;28;1939;-85
2021/05/20 12:31:37;;;;;;;;;;;17.20;97.10;;;15.83;48.32;96122.69;10488911;28;1802;-86
2021/05/20 12:36:41;;;;;;;;;;;17.00;96.20;;;16.21;46.75;96116.00;10466688;28;1998;-85
2021/05/20 12:41:43;;;;;;;;;;;17.10;96.20;;;16.63;43.30;96111.38;10468642;28;2147;-86
2021/05/20 12:46:46;;;;;;;;;;;17.50;92.10;;;15.71;45.36;96125.88;10481789;28;2348;-89
2021/05/20 12:51:51;;;;;;;;;;;17.00;92.00;;;14.93;48.56;96116.50;10502113;28;2074;-85
2021/05/20 12:56:54;;;;;;;;;;;16.30;94.80;;;15.45;47.92;96111.91;10481430;28;1940;-84
2021/05/20 13:01:56;;;;;;;;;;;16.20;95.80;;;16.12;45.07;96106.16;10484807;28;1885;-85
2021/05/20 13:06:58;;;;;;;;;;;16.80;93.50;;;15.92;45.90;96091.88;10506373;28;1931;-83
2021/05/20 13:12:01;;;;;;;;;;;17.10;92.50;;;15.24;47.66;96092.47;10465844;28;2281;-84
2021/05/20 13:17:11;;;;;;;;;;;16.60;92.30;;;15.71;43.96;96090.63;10462686;28;1975;-86
2021/05/20 13:22:23;;;;;;;;;;;16.50;90.30;;;15.59;43.43;96093.00;10477324;28;2116;-85
2021/05/20 13:27:46;;;;;;;;;;;16.70;88.70;;;15.78;43.67;96095.69;10480112;28;1910;-85
2021/05/20 13:32:51;;;;;;;;;;;16.70;89.00;;;15.72;44.03;96096.88;10486349;28;2074;-85
2021/05/20 13:37:53;;;;;;;;;;;16.50;89.30;;;15.73;42.67;96091.16;10476991;28;2053;-84
2021/05/20 13:42:56;;;;;;;;;;;16.60;87.40;;;15.97;43.65;96093.72;10456990;28;1898;-84
2021/05/20 13:47:58;;;;;;;;;;;16.70;88.50;;;15.70;45.34;96094.44;10453699;28;1861;-83
2021/05/20 13:53:01;;;;;;;;;;;16.70;89.30;;;15.77;44.82;96103.00;10466064;28;1618;-84
2021/05/20 13:58:06;;;;;;;;;;;16.80;89.50;;;16.16;42.72;96097.13;10461732;28;2044;-85
2021/05/20 14:03:14;;;;;;;;;;;17.00;87.40;;;15.44;46.65;96096.75;10461803;28;1941;-85
2021/05/20 14:08:17;;;;;;;;;;;16.90;89.50;;;15.47;47.83;96093.47;10463073;28;2086;-85
2021/05/20 14:13:20;;;;;;;;;;;16.50;91.90;;;15.53;44.95;96089.59;10467843;28;1995;-86
2021/05/20 14:18:23;;;;;;;;;;;16.30;90.40;;;15.73;46.34;96082.22;10472588;28;2072;-86
2021/05/20 14:23:26;;;;;;;;;;;16.50;90.80;;;15.83;47.65;96077.41;10484823;28;2019;-89
2021/05/20 14:28:37;;;;;;;;;;;16.80;93.00;;;15.91;46.21;96078.63;10463365;28;1846;-86
2021/05/20 14:33:41;;;;;;;;;;;16.90;91.90;;;16.54;41.70;96071.66;10477724;28;2134;-89
2021/05/20 14:38:55;;;;;;;;;;;17.20;87.40;;;16.43;41.08;96069.19;10467996;28;2100;-88
2021/05/20 14:50:01;;;;;;;;;;;;;;;;;;;;;
2021/05/20 14:55:53;;;;;;;;;;;18.20;81.50;;;17.58;39.03;96053.53;10461410;28;2030;-87
2021/05/20 15:06:21;;;;;;;;;;;19.50;79.20;;;17.35;38.37;96058.16;10483298;28;2068;-88
2021/05/20 15:11:28;;;;;;;;;;;18.60;78.90;;;16.17;41.87;96058.06;10471036;28;2082;-88
2021/05/20 15:16:35;;;;;;;;;;;17.80;80.70;;;15.60;44.15;96059.38;10477872;28;2189;-88
2021/05/20 15:21:48;;;;;;;;;;;17.00;83.50;;;15.76;44.26;96059.94;10502418;28;2287;-88
2021/05/20 15:26:54;;;;;;;;;;;16.80;84.90;;;16.19;42.16;96045.00;10499012;28;1976;-88
2021/05/20 15:32:06;;;;;;;;;;;17.00;83.80;;;17.77;37.01;96052.22;10495834;28;2136;-87
2021/05/20 15:37:11;;;;;;;;;;;17.90;80.00;;;17.56;37.55;96051.13;10451379;22;3675;-88
2021/05/20 15:42:31;;;;;;;;;;;18.40;77.30;;;16.79;38.61;96054.06;10333479;28;2067;-88
2021/05/20 15:47:39;;;;;;;;;;;18.20;76.80;;;16.27;38.35;96058.94;10362108;28;1956;-87
2021/05/20 15:52:42;;;;;;;;;;;17.50;76.10;;;16.03;39.33;96046.41;10285008;28;1963;-89
2021/05/20 15:57:46;;;;;;;;;;;17.20;77.10;;;15.71;40.84;96041.06;10303482;28;1815;-86
2021/05/20 16:02:53;;;;;;;;;;;16.90;78.50;;;15.84;41.90;96043.78;10353423;28;1994;-87
2021/05/20 16:08:20;;;;;;;;;;;16.70;80.20;;;16.02;41.84;96039.34;10361727;28;2085;-87
2021/05/20 16:18:50;;;;;;;;;;;17.10;79.00;;;16.20;40.32;96033.03;10354673;28;1899;-87
2021/05/20 16:40:00;;;;;;;;;;;16.10;81.90;;;15.13;44.35;96031.47;10351969;28;2057;-85
2021/05/20 16:45:06;;;;;;;;;;;16.20;82.60;;;14.95;45.90;96033.13;10279046;28;1891;-86
2021/05/20 16:50:09;;;;;;;;;;;15.90;84.50;;;14.51;47.06;96037.00;10352841;28;2063;-88
2021/05/20 16:55:16;;;;;;;;;;;15.70;85.10;;;14.50;47.31;96037.28;10346554;28;1676;-87
2021/05/20 17:00:22;;;;;;;;;;;15.50;85.90;;;14.71;47.82;96032.41;10329289;28;1827;-87
2021/05/20 17:05:28;;;;;;;;;;;15.50;87.40;;;14.66;47.02;96027.88;10346570;28;2051;-86
2021/05/20 17:10:31;;;;;;;;;;;15.70;86.70;;;14.28;48.57;96008.88;10355942;28;1543;-84
2021/05/20 17:15:34;;;;;;;;;;;15.50;87.20;;;14.21;48.99;96004.94;10347063;28;2093;-84
2021/05/20 17:21:02;;;;;;;;;;;15.30;88.10;;;14.13;48.32;96002.91;10266991;28;2015;-86
2021/05/20 17:26:10;;;;;;;;;;;15.20;87.50;;;13.78;49.50;96004.91;10327315;28;2052;-85
2021/05/20 17:31:22;;;;;;;;;;;15.10;88.20;;;13.49;50.20;95999.59;10329187;28;2132;-84
2021/05/20 17:36:26;;;;;;;;;;;14.80;89.20;;;13.38;51.09;95995.38;10360234;28;2081;-86
2021/05/20 17:41:29;;;;;;;;;;;14.60;90.00;;;13.28;52.10;96000.88;10355907;28;1998;-85
2021/05/20 17:46:33;;;;;;;;;;;14.50;90.40;;;13.02;53.27;95994.88;10350566;28;2048;-84
2021/05/20 17:51:37;;;;;;;;;;;14.30;91.80;;;12.86;54.53;95986.91;10327580;28;1835;-86
2021/05/20 17:56:41;;;;;;;;;;;14.20;93.40;;;12.70;54.74;95988.91;10281135;28;2107;-83
2021/05/20 18:01:48;;;;;;;;;;;14.00;93.80;;;12.52;55.83;95988.78;10335711;28;2009;-87
2021/05/20 18:06:54;;;;;;;;;;;13.80;94.70;;;12.34;55.97;95980.28;10332214;28;1975;-87
2021/05/20 18:12:08;;;;;;;;;;;13.70;95.50;;;12.21;57.39;95980.06;10364602;28;2041;-88
2021/05/20 18:17:20;;;;;;;;;;;13.50;96.40;;;12.05;57.84;95988.25;10329472;28;1829;-86
2021/05/20 18:22:26;;;;;;;;;;;13.40;97.40;;;11.87;58.58;95980.78;10347214;28;2014;-84
2021/05/20 18:27:31;;;;;;;;;;;13.30;98.60;;;11.73;59.50;95977.88;10286531;28;1933;-85
2021/05/20 18:32:37;;;;;;;;;;;13.10;99.80;;;11.53;60.61;95978.75;10354392;28;1959;-81
2021/05/20 18:37:43;;;;;;;;;;;13.00;99.90;;;11.38;62.04;95976.88;10327836;28;2106;-84
2021/05/20 18:42:56;;;;;;;;;;;12.80;99.90;;;11.22;62.57;95985.28;10331591;28;2030;-85
2021/05/20 18:48:01;;;;;;;;;;;12.60;99.90;;;11.05;63.44;95975.63;10359785;28;1969;-82
2021/05/20 18:53:05;;;;;;;;;;;12.50;99.90;;;10.95;64.09;95981.03;10339630;28;1539;-85
2021/05/20 18:58:09;;;;;;;;;;;12.40;99.90;;;10.82;65.21;95986.97;10348536;28;2065;-81
2021/05/20 19:03:13;;;;;;;;;;;12.30;99.90;;;10.65;65.71;95981.84;10354560;28;2107;-84
2021/05/20 19:08:17;;;;;;;;;;;12.10;99.90;;;10.55;67.22;95979.13;10289227;28;2127;-84
2021/05/20 19:13:20;;;;;;;;;;;12.00;99.90;;;10.47;67.99;95972.41;10293817;28;1840;-84
2021/05/20 19:18:29;;;;;;;;;;;11.90;99.90;;;10.46;68.04;95964.63;10356348;28;2112;-84
2021/05/20 19:23:32;;;;;;;;;;;11.80;99.90;;;10.37;68.64;95958.16;10346791;28;2078;-84
2021/05/20 19:28:37;;;;;;;;;;;11.70;99.90;;;10.35;68.20;95973.75;10354659;28;1944;-88
2021/05/20 19:33:41;;;;;;;;;;;11.70;99.90;;;10.34;68.39;95969.44;10278476;28;2120;-87
2021/05/20 19:38:44;;;;;;;;;;;11.60;99.90;;;10.33;68.02;95967.84;10344866;28;1933;-85
2021/05/20 19:43:47;;;;;;;;;;;11.60;99.90;;;10.27;67.98;95967.81;10345766;28;1979;-83
2021/05/20 19:48:51;;;;;;;;;;;11.60;99.90;;;10.26;68.50;95973.47;10257893;28;2132;-85
2021/05/20 19:54:01;;;;;;;;;;;11.60;99.90;;;10.22;68.93;95970.47;10322481;28;2245;-84
2021/05/20 20:04:43;;;;;;;;;;;11.40;99.90;;;10.12;69.95;95966.97;10353750;28;2090;-84
2021/05/20 20:09:47;;;;;;;;;;;11.40;99.90;;;10.00;70.13;95956.47;10252506;28;2166;-84
2021/05/20 20:14:53;;;;;;;;;;;11.30;99.90;;;9.98;70.81;95962.09;10244454;28;2303;-86
2021/05/20 20:19:57;;;;;;;;;;;11.30;99.90;;;9.93;71.20;95953.22;10328589;28;2088;-83
2021/05/20 20:25:04;;;;;;;;;;;11.30;99.90;;;9.94;71.54;95944.09;10350961;28;1957;-84
2021/05/20 20:30:10;;;;;;;;;;;11.20;99.90;;;10.01;71.66;95944.66;10281962;28;1975;-84
2021/05/20 20:46:05;;;;;;;;;;;11.20;99.90;;;9.96;70.99;95923.16;10339361;28;1953;-84
2021/05/20 20:51:08;;;;;;;;;;;11.10;99.90;;;9.90;70.51;95921.53;10342578;28;1846;-86
2021/05/20 20:56:16;;;;;;;;;;;11.10;99.90;;;9.81;70.96;95910.50;10277666;28;1870;-84
2021/05/20 21:01:18;;;;;;;;;;;11.00;99.90;;;9.85;71.13;95902.72;10305894;28;2242;-85
2021/05/20 21:06:22;;;;;;;;;;;11.10;99.90;;;9.82;70.52;95892.53;10362155;28;2036;-84
2021/05/20 21:11:25;;;;;;;;;;;11.00;99.90;;;9.85;69.64;95891.97;10346355;28;2075;-83
2021/05/20 21:16:30;;;;;;;;;;;11.00;99.90;;;9.81;67.83;95890.91;10357179;28;1606;-87
2021/05/20 21:21:33;;;;;;;;;;;11.00;99.90;;;9.80;68.28;95884.75;10276227;28;1973;-84
2021/05/20 21:26:36;;;;;;;;;;;10.90;99.90;;;9.70;68.34;95874.78;10356288;28;1899;-87
2021/05/20 21:31:39;;;;;;;;;;;10.90;99.90;;;9.60;67.43;95881.97;10347514;28;2007;-86
2021/05/20 21:36:42;;;;;;;;;;;10.80;99.90;;;9.56;67.73;95875.56;10289510;28;1959;-86
2021/05/20 21:41:46;;;;;;;;;;;10.80;99.90;;;9.59;66.94;95866.97;10321682;28;1859;-83
2021/05/20 21:46:49;;;;;;;;;;;10.80;99.90;;;9.55;66.83;95866.69;10331715;28;2002;-84
2021/05/20 21:51:52;;;;;;;;;;;10.80;99.90;;;9.53;67.14;95859.97;10340907;28;1979;-84
2021/05/20 21:56:55;;;;;;;;;;;10.70;99.90;;;9.41;66.97;95861.00;10332610;28;2177;-81
2021/05/20 22:01:58;;;;;;;;;;;10.70;99.90;;;9.35;67.50;95862.06;10335748;28;1825;-83
2021/05/20 22:07:01;;;;;;;;;;;10.60;99.90;;;9.33;68.16;95858.03;10338222;28;2027;-83
2021/05/20 22:12:09;;;;;;;;;;;10.50;99.90;;;9.37;68.10;95846.50;10332960;28;2006;-84
2021/05/20 22:17:32;;;;;;;;;;;10.50;99.90;;;9.31;67.79;95844.09;10251026;28;1950;-85
2021/05/20 22:22:50;;;;;;;;;;;10.50;99.90;;;9.25;68.23;95851.31;10312641;28;2033;-82
2021/05/20 22:27:58;;;;;;;;;;;10.40;99.90;;;9.23;68.02;95852.66;10336385;28;1882;-85
2021/05/20 22:33:01;;;;;;;;;;;10.40;99.90;;;9.24;68.16;95851.56;10323404;28;2049;-82
2021/05/20 22:38:04;;;;;;;;;;;10.40;99.90;;;9.18;68.22;95846.19;10342229;28;1801;-83
2021/05/20 22:43:07;;;;;;;;;;;10.30;99.90;;;9.17;68.32;95844.56;10270796;28;1931;-82
2021/05/20 22:48:09;;;;;;;;;;;10.30;99.90;;;9.11;69.10;95856.34;10260831;28;2119;-83
2021/05/20 22:53:13;;;;;;;;;;;10.30;99.90;;;9.03;69.41;95835.38;10313841;28;1618;-81
2021/05/20 22:58:16;;;;;;;;;;;10.20;99.90;;;8.98;70.46;95813.94;10328857;28;2124;-82
2021/05/20 23:03:18;;;;;;;;;;;10.20;99.90;;;8.94;70.54;95777.97;10256760;28;1979;-79
2021/05/20 23:08:21;;;;;;;;;;;10.20;99.90;;;8.91;70.74;95782.00;10253649;28;2045;-83
2021/05/20 23:13:24;;;;;;;;;;;10.10;99.90;;;8.93;70.39;95779.06;10329830;28;1837;-83
2021/05/20 23:18:27;;;;;;;;;;;10.00;99.90;;;8.97;70.49;95787.38;10325611;28;2008;-84
2021/05/20 23:23:30;;;;;;;;;;;10.10;99.90;;;8.93;70.51;95782.53;10333156;28;2102;-85
2021/05/20 23:28:33;;;;;;;;;;;10.10;99.90;;;8.89;70.67;95770.72;10378618;28;1926;-86
2021/05/20 23:33:37;;;;;;;;;;;10.10;99.90;;;8.85;70.41;95776.88;10353771;28;1614;-86
2021/05/20 23:38:40;;;;;;;;;;;10.00;99.90;;;8.77;70.43;95775.50;10350689;28;2027;-85
2021/05/20 23:43:43;;;;;;;;;;;10.00;99.90;;;8.74;71.47;95767.19;10296495;28;2288;-85
2021/05/20 23:48:46;;;;;;;;;;;9.90;99.90;;;8.66;71.66;95771.97;10366691;28;1910;-83
2021/05/20 23:53:50;;;;;;;;;;;10.70;99.90;;;8.63;71.87;95774.38;10375480;28;1644;-83
2021/05/20 23:58:54;;;;;;;;;;;9.80;99.90;;;8.53;72.06;95761.75;10341898;28;2052;-85
